JDI39 CYEG-CYMM
Flight info
| Callsign | JDI39 |
|---|---|
| Flight time | 0h 48m |
| Altitude | 31000 |
| Route | RUBSU Q856 LETRM |
| Aircraft | RJ70/M-SDFGIRWY/LB1 |
Departure
| Time | 2026-04-29 00:07 |
|---|---|
| Airport | Edmonton International Airport (CYEG) |
Arrival
| Time | 2026-04-29 00:55 |
|---|---|
| Airport | Fort McMurray International Airport (CYMM) |
| Time | Latitude | Longitude | Altitude | Speed | Heading |
|---|---|---|---|---|---|
| 2026-04-28 23:43 | 53.32079 | -113.57401 | 2355 ft | 0 kts | 119° |
| 2026-04-29 00:00 | 53.32079 | -113.57399 | 2355 ft | 1 kts | 115° |
| 2026-04-29 00:01 | 53.32078 | -113.57395 | 2355 ft | 0 kts | 110° |
| 2026-04-29 00:01 | 53.32082 | -113.57388 | 2355 ft | 3 kts | 30° |
| 2026-04-29 00:01 | 53.32127 | -113.57355 | 2355 ft | 5 kts | 23° |
| 2026-04-29 00:01 | 53.32128 | -113.57354 | 2355 ft | 0 kts | 23° |
| 2026-04-29 00:02 | 53.32144 | -113.57343 | 2355 ft | 5 kts | 18° |
| 2026-04-29 00:02 | 53.32192 | -113.57357 | 2355 ft | 9 kts | 323° |
| 2026-04-29 00:02 | 53.32228 | -113.57431 | 2355 ft | 0 kts | 308° |
| 2026-04-29 00:03 | 53.32232 | -113.57439 | 2355 ft | 3 kts | 306° |
| 2026-04-29 00:03 | 53.32252 | -113.57487 | 2355 ft | 8 kts | 305° |
| 2026-04-29 00:03 | 53.32266 | -113.57581 | 2355 ft | 10 kts | 246° |
| 2026-04-29 00:04 | 53.32204 | -113.57667 | 2355 ft | 14 kts | 214° |
| 2026-04-29 00:04 | 53.32121 | -113.57765 | 2354 ft | 15 kts | 214° |
| 2026-04-29 00:04 | 53.32030 | -113.57872 | 2354 ft | 17 kts | 215° |
| 2026-04-29 00:04 | 53.31933 | -113.57987 | 2353 ft | 18 kts | 216° |
| 2026-04-29 00:05 | 53.31829 | -113.58109 | 2352 ft | 19 kts | 214° |
| 2026-04-29 00:05 | 53.31719 | -113.58239 | 2352 ft | 20 kts | 214° |
| 2026-04-29 00:05 | 53.31607 | -113.58369 | 2351 ft | 16 kts | 214° |
| 2026-04-29 00:05 | 53.31622 | -113.58437 | 2351 ft | 8 kts | 343° |
| 2026-04-29 00:06 | 53.31690 | -113.58460 | 2351 ft | 11 kts | 348° |
| 2026-04-29 00:06 | 53.31775 | -113.58489 | 2352 ft | 13 kts | 348° |
| 2026-04-29 00:06 | 53.31868 | -113.58487 | 2351 ft | 9 kts | 39° |
| 2026-04-29 00:06 | 53.31872 | -113.58483 | 2351 ft | 0 kts | 33° |
| 2026-04-29 00:07 | 53.31965 | -113.58375 | 2351 ft | 56 kts | 36° |
| 2026-04-29 00:07 | 53.32522 | -113.57722 | 2355 ft | 136 kts | 33° |
| 2026-04-29 00:07 | 53.33357 | -113.56782 | 2987 ft | 144 kts | 27° |
| 2026-04-29 00:08 | 53.34288 | -113.55893 | 3708 ft | 167 kts | 28° |
| 2026-04-29 00:08 | 53.35316 | -113.54726 | 4620 ft | 188 kts | 35° |
| 2026-04-29 00:08 | 53.36404 | -113.53370 | 5710 ft | 205 kts | 35° |
| 2026-04-29 00:08 | 53.37713 | -113.51790 | 5992 ft | 251 kts | 33° |
| 2026-04-29 00:09 | 53.39120 | -113.50119 | 6028 ft | 248 kts | 33° |
| 2026-04-29 00:09 | 53.40547 | -113.48441 | 6075 ft | 259 kts | 34° |
| 2026-04-29 00:09 | 53.42041 | -113.46687 | 6720 ft | 259 kts | 34° |
| 2026-04-29 00:09 | 53.43476 | -113.44988 | 7727 ft | 250 kts | 33° |
| 2026-04-29 00:10 | 53.44891 | -113.43266 | 8614 ft | 252 kts | 34° |
| 2026-04-29 00:10 | 53.46301 | -113.41490 | 9427 ft | 255 kts | 33° |
| 2026-04-29 00:10 | 53.47716 | -113.39678 | 10278 ft | 256 kts | 33° |
| 2026-04-29 00:10 | 53.49141 | -113.37871 | 11221 ft | 259 kts | 33° |
| 2026-04-29 00:11 | 53.50623 | -113.36010 | 12005 ft | 273 kts | 33° |
| 2026-04-29 00:11 | 53.52267 | -113.34286 | 12707 ft | 284 kts | 20° |
| 2026-04-29 00:11 | 53.56122 | -113.31955 | 13871 ft | 306 kts | 18° |
| 2026-04-29 00:12 | 53.58134 | -113.30699 | 14501 ft | 311 kts | 18° |
| 2026-04-29 00:12 | 53.60174 | -113.29369 | 15070 ft | 316 kts | 19° |
| 2026-04-29 00:12 | 53.62223 | -113.27985 | 15622 ft | 320 kts | 20° |
| 2026-04-29 00:12 | 53.64289 | -113.26534 | 16147 ft | 323 kts | 20° |
| 2026-04-29 00:13 | 53.66376 | -113.25056 | 16655 ft | 327 kts | 20° |
| 2026-04-29 00:13 | 53.68481 | -113.23552 | 17151 ft | 330 kts | 20° |
| 2026-04-29 00:13 | 53.70608 | -113.22028 | 17645 ft | 333 kts | 21° |
| 2026-04-29 00:13 | 53.72744 | -113.20460 | 18138 ft | 337 kts | 21° |
| 2026-04-29 00:14 | 53.74907 | -113.18897 | 18598 ft | 340 kts | 20° |
| 2026-04-29 00:14 | 53.77093 | -113.17319 | 19055 ft | 342 kts | 20° |
| 2026-04-29 00:14 | 53.79288 | -113.15736 | 19518 ft | 344 kts | 20° |
| 2026-04-29 00:14 | 53.81494 | -113.14144 | 19973 ft | 346 kts | 20° |
| 2026-04-29 00:15 | 53.83713 | -113.12539 | 20430 ft | 348 kts | 20° |
| 2026-04-29 00:15 | 53.85942 | -113.10926 | 20892 ft | 350 kts | 21° |
| 2026-04-29 00:15 | 53.88199 | -113.09279 | 21222 ft | 356 kts | 21° |
| 2026-04-29 00:15 | 53.90472 | -113.07595 | 21628 ft | 358 kts | 21° |
| 2026-04-29 00:16 | 53.92763 | -113.05900 | 22051 ft | 360 kts | 21° |
| 2026-04-29 00:16 | 53.95078 | -113.04224 | 22464 ft | 363 kts | 20° |
| 2026-04-29 00:16 | 53.97410 | -113.02540 | 22883 ft | 365 kts | 21° |
| 2026-04-29 00:16 | 53.99745 | -113.00815 | 23275 ft | 368 kts | 21° |
| 2026-04-29 00:17 | 54.02101 | -112.99084 | 23681 ft | 370 kts | 20° |
| 2026-04-29 00:17 | 54.04473 | -112.97365 | 24030 ft | 371 kts | 21° |
| 2026-04-29 00:17 | 54.06820 | -112.95635 | 24368 ft | 373 kts | 21° |
| 2026-04-29 00:17 | 54.09202 | -112.93863 | 24713 ft | 374 kts | 21° |
| 2026-04-29 00:18 | 54.11583 | -112.92131 | 25250 ft | 369 kts | 21° |
| 2026-04-29 00:18 | 54.13939 | -112.90406 | 25684 ft | 368 kts | 21° |
| 2026-04-29 00:18 | 54.16281 | -112.88657 | 26089 ft | 367 kts | 21° |
| 2026-04-29 00:18 | 54.18620 | -112.86928 | 26507 ft | 366 kts | 21° |
| 2026-04-29 00:19 | 54.20956 | -112.85206 | 26927 ft | 365 kts | 21° |
| 2026-04-29 00:19 | 54.23281 | -112.83464 | 27293 ft | 365 kts | 21° |
| 2026-04-29 00:19 | 54.25611 | -112.81725 | 27687 ft | 364 kts | 21° |
| 2026-04-29 00:19 | 54.27935 | -112.80021 | 28087 ft | 363 kts | 21° |
| 2026-04-29 00:20 | 54.30250 | -112.78296 | 28484 ft | 362 kts | 21° |
| 2026-04-29 00:20 | 54.32556 | -112.76570 | 28885 ft | 361 kts | 21° |
| 2026-04-29 00:20 | 54.34848 | -112.74849 | 29287 ft | 359 kts | 21° |
| 2026-04-29 00:20 | 54.37135 | -112.73161 | 29673 ft | 358 kts | 21° |
| 2026-04-29 00:21 | 54.39418 | -112.71459 | 30052 ft | 357 kts | 21° |
| 2026-04-29 00:21 | 54.41689 | -112.69756 | 30395 ft | 356 kts | 21° |
| 2026-04-29 00:21 | 54.43960 | -112.68052 | 30632 ft | 357 kts | 21° |
| 2026-04-29 00:21 | 54.46235 | -112.66346 | 30914 ft | 356 kts | 21° |
| 2026-04-29 00:22 | 54.48509 | -112.64637 | 31096 ft | 358 kts | 21° |
| 2026-04-29 00:22 | 54.53026 | -112.61231 | 31166 ft | 350 kts | 21° |
| 2026-04-29 00:23 | 54.57537 | -112.57861 | 31196 ft | 360 kts | 21° |
| 2026-04-29 00:23 | 54.62227 | -112.54318 | 31193 ft | 376 kts | 21° |
| 2026-04-29 00:24 | 54.67101 | -112.50631 | 31197 ft | 389 kts | 21° |
| 2026-04-29 00:24 | 54.72137 | -112.46827 | 31193 ft | 399 kts | 21° |
| 2026-04-29 00:25 | 54.77243 | -112.42977 | 31181 ft | 402 kts | 21° |
| 2026-04-29 00:25 | 54.82470 | -112.39585 | 31185 ft | 399 kts | 8° |
| 2026-04-29 00:26 | 54.87954 | -112.37942 | 31173 ft | 401 kts | 8° |
| 2026-04-29 00:26 | 54.93454 | -112.36262 | 31170 ft | 401 kts | 8° |
| 2026-04-29 00:27 | 54.98920 | -112.34614 | 31171 ft | 400 kts | 8° |
| 2026-04-29 00:27 | 55.04385 | -112.32971 | 31163 ft | 398 kts | 8° |
| 2026-04-29 00:28 | 55.09871 | -112.31309 | 31158 ft | 401 kts | 8° |
| 2026-04-29 00:28 | 55.15375 | -112.29634 | 31156 ft | 401 kts | 8° |
| 2026-04-29 00:29 | 55.20874 | -112.27956 | 31152 ft | 401 kts | 8° |
| 2026-04-29 00:29 | 55.26376 | -112.26274 | 31146 ft | 401 kts | 8° |
| 2026-04-29 00:30 | 55.31877 | -112.24589 | 31142 ft | 402 kts | 8° |
| 2026-04-29 00:30 | 55.37381 | -112.22895 | 31120 ft | 402 kts | 8° |
| 2026-04-29 00:30 | 55.40154 | -112.22039 | 30595 ft | 402 kts | 8° |
| 2026-04-29 00:31 | 55.42877 | -112.21196 | 29962 ft | 393 kts | 8° |
| 2026-04-29 00:31 | 55.45546 | -112.20366 | 29269 ft | 385 kts | 8° |
| 2026-04-29 00:31 | 55.48168 | -112.19547 | 28581 ft | 380 kts | 8° |
| 2026-04-29 00:31 | 55.50775 | -112.18731 | 27926 ft | 381 kts | 8° |
| 2026-04-29 00:32 | 55.53393 | -112.17910 | 27297 ft | 383 kts | 8° |
| 2026-04-29 00:32 | 55.56021 | -112.17084 | 26680 ft | 383 kts | 8° |
| 2026-04-29 00:32 | 55.58650 | -112.16257 | 26074 ft | 384 kts | 8° |
| 2026-04-29 00:32 | 55.61288 | -112.15424 | 25482 ft | 386 kts | 8° |
| 2026-04-29 00:33 | 55.63902 | -112.14598 | 24914 ft | 386 kts | 9° |
| 2026-04-29 00:33 | 55.66522 | -112.13780 | 24343 ft | 381 kts | 8° |
| 2026-04-29 00:33 | 55.69141 | -112.12973 | 23786 ft | 383 kts | 8° |
| 2026-04-29 00:33 | 55.71771 | -112.12165 | 23128 ft | 383 kts | 8° |
| 2026-04-29 00:34 | 55.74382 | -112.11362 | 22467 ft | 378 kts | 8° |
| 2026-04-29 00:34 | 55.76966 | -112.10563 | 21818 ft | 376 kts | 8° |
| 2026-04-29 00:34 | 55.79535 | -112.09767 | 21191 ft | 373 kts | 8° |
| 2026-04-29 00:34 | 55.82083 | -112.08974 | 20573 ft | 370 kts | 8° |
| 2026-04-29 00:35 | 55.84610 | -112.08184 | 19966 ft | 367 kts | 8° |
| 2026-04-29 00:35 | 55.87118 | -112.07399 | 19370 ft | 365 kts | 8° |
| 2026-04-29 00:35 | 55.89611 | -112.06611 | 18788 ft | 362 kts | 8° |
| 2026-04-29 00:35 | 55.92090 | -112.05829 | 18174 ft | 360 kts | 8° |
| 2026-04-29 00:36 | 55.94513 | -112.05058 | 17522 ft | 354 kts | 8° |
| 2026-04-29 00:36 | 55.96920 | -112.04292 | 16895 ft | 350 kts | 8° |
| 2026-04-29 00:36 | 55.99281 | -112.03313 | 16266 ft | 349 kts | 20° |
| 2026-04-29 00:36 | 56.01265 | -112.00834 | 15653 ft | 353 kts | 45° |
| 2026-04-29 00:37 | 56.02477 | -111.97023 | 15065 ft | 358 kts | 69° |
| 2026-04-29 00:37 | 56.02796 | -111.92598 | 14492 ft | 361 kts | 85° |
| 2026-04-29 00:37 | 56.02810 | -111.88115 | 13916 ft | 359 kts | 86° |
| 2026-04-29 00:37 | 56.02792 | -111.83688 | 13270 ft | 352 kts | 88° |
| 2026-04-29 00:38 | 56.02742 | -111.79367 | 12625 ft | 343 kts | 88° |
| 2026-04-29 00:38 | 56.02674 | -111.75219 | 11995 ft | 316 kts | 88° |
| 2026-04-29 00:38 | 56.02602 | -111.71517 | 11355 ft | 286 kts | 89° |
| 2026-04-29 00:38 | 56.02529 | -111.67989 | 10744 ft | 283 kts | 89° |
| 2026-04-29 00:39 | 56.02462 | -111.64483 | 10140 ft | 282 kts | 89° |
| 2026-04-29 00:39 | 56.02406 | -111.61002 | 9565 ft | 277 kts | 89° |
| 2026-04-29 00:39 | 56.02373 | -111.58727 | 9247 ft | 277 kts | 89° |
| 2026-04-29 00:39 | 56.02334 | -111.55265 | 8768 ft | 278 kts | 88° |
| 2026-04-29 00:40 | 56.02305 | -111.51832 | 8293 ft | 275 kts | 88° |
| 2026-04-29 00:40 | 56.02287 | -111.48423 | 7837 ft | 273 kts | 88° |
| 2026-04-29 00:40 | 56.02302 | -111.45048 | 7385 ft | 268 kts | 82° |
| 2026-04-29 00:40 | 56.02951 | -111.42002 | 6930 ft | 263 kts | 49° |
| 2026-04-29 00:41 | 56.04390 | -111.40111 | 6497 ft | 257 kts | 23° |
| 2026-04-29 00:41 | 56.06001 | -111.38697 | 6040 ft | 258 kts | 26° |
| 2026-04-29 00:41 | 56.07575 | -111.37142 | 5578 ft | 257 kts | 28° |
| 2026-04-29 00:41 | 56.09137 | -111.35628 | 5250 ft | 253 kts | 26° |
| 2026-04-29 00:42 | 56.10685 | -111.34133 | 5119 ft | 253 kts | 26° |
| 2026-04-29 00:42 | 56.12224 | -111.32638 | 5086 ft | 250 kts | 27° |
| 2026-04-29 00:42 | 56.13767 | -111.31143 | 5091 ft | 251 kts | 27° |
| 2026-04-29 00:42 | 56.15297 | -111.29637 | 5073 ft | 254 kts | 27° |
| 2026-04-29 00:43 | 56.16841 | -111.28132 | 5069 ft | 252 kts | 27° |
| 2026-04-29 00:43 | 56.18373 | -111.26610 | 5078 ft | 253 kts | 28° |
| 2026-04-29 00:43 | 56.19912 | -111.25089 | 5073 ft | 252 kts | 27° |
| 2026-04-29 00:43 | 56.21457 | -111.23563 | 5082 ft | 255 kts | 27° |
| 2026-04-29 00:44 | 56.22995 | -111.22026 | 5079 ft | 253 kts | 28° |
| 2026-04-29 00:44 | 56.24539 | -111.20484 | 5063 ft | 252 kts | 28° |
| 2026-04-29 00:44 | 56.26079 | -111.18951 | 5065 ft | 254 kts | 27° |
| 2026-04-29 00:44 | 56.27623 | -111.17421 | 5064 ft | 252 kts | 27° |
| 2026-04-29 00:45 | 56.29167 | -111.15892 | 5063 ft | 253 kts | 28° |
| 2026-04-29 00:45 | 56.30692 | -111.14379 | 5056 ft | 252 kts | 27° |
| 2026-04-29 00:45 | 56.32253 | -111.12818 | 5054 ft | 253 kts | 27° |
| 2026-04-29 00:45 | 56.33775 | -111.11296 | 5056 ft | 255 kts | 27° |
| 2026-04-29 00:46 | 56.35316 | -111.09754 | 5054 ft | 253 kts | 27° |
| 2026-04-29 00:46 | 56.36855 | -111.08217 | 5042 ft | 253 kts | 27° |
| 2026-04-29 00:46 | 56.38401 | -111.06669 | 5037 ft | 255 kts | 26° |
| 2026-04-29 00:46 | 56.39978 | -111.05087 | 5036 ft | 259 kts | 28° |
| 2026-04-29 00:47 | 56.41555 | -111.03506 | 5032 ft | 259 kts | 27° |
| 2026-04-29 00:47 | 56.43128 | -111.01914 | 5028 ft | 259 kts | 27° |
| 2026-04-29 00:47 | 56.44702 | -111.00335 | 5030 ft | 259 kts | 26° |
| 2026-04-29 00:47 | 56.46276 | -110.98758 | 5029 ft | 258 kts | 27° |
| 2026-04-29 00:48 | 56.47852 | -110.97174 | 4909 ft | 261 kts | 27° |
| 2026-04-29 00:48 | 56.49355 | -110.95658 | 4605 ft | 231 kts | 27° |
| 2026-04-29 00:48 | 56.50695 | -110.94303 | 4287 ft | 216 kts | 27° |
| 2026-04-29 00:48 | 56.52004 | -110.92990 | 4090 ft | 214 kts | 27° |
| 2026-04-29 00:49 | 56.53299 | -110.91680 | 4038 ft | 213 kts | 27° |
| 2026-04-29 00:49 | 56.54551 | -110.90399 | 4016 ft | 196 kts | 27° |
| 2026-04-29 00:49 | 56.55723 | -110.89199 | 4061 ft | 194 kts | 27° |
| 2026-04-29 00:49 | 56.56971 | -110.88384 | 4088 ft | 192 kts | 8° |
| 2026-04-29 00:50 | 56.58295 | -110.88069 | 4084 ft | 191 kts | 4° |
| 2026-04-29 00:50 | 56.59632 | -110.87902 | 4076 ft | 193 kts | 1° |
| 2026-04-29 00:50 | 56.60969 | -110.87836 | 4062 ft | 193 kts | 360° |
| 2026-04-29 00:50 | 56.62310 | -110.87809 | 4047 ft | 191 kts | 360° |
| 2026-04-29 00:51 | 56.63631 | -110.88050 | 4012 ft | 193 kts | 337° |
| 2026-04-29 00:51 | 56.64554 | -110.89745 | 4013 ft | 193 kts | 295° |
| 2026-04-29 00:51 | 56.64978 | -110.92090 | 4035 ft | 196 kts | 288° |
| 2026-04-29 00:51 | 56.65210 | -110.94533 | 4036 ft | 199 kts | 275° |
| 2026-04-29 00:52 | 56.65284 | -110.97033 | 3864 ft | 199 kts | 274° |
| 2026-04-29 00:52 | 56.65299 | -110.99473 | 3578 ft | 184 kts | 271° |
| 2026-04-29 00:52 | 56.65297 | -111.01781 | 3323 ft | 179 kts | 271° |
| 2026-04-29 00:52 | 56.65300 | -111.03908 | 3096 ft | 162 kts | 272° |
| 2026-04-29 00:53 | 56.65307 | -111.05972 | 2887 ft | 163 kts | 271° |
| 2026-04-29 00:53 | 56.65305 | -111.08033 | 2656 ft | 163 kts | 272° |
| 2026-04-29 00:53 | 56.65314 | -111.10091 | 2418 ft | 163 kts | 271° |
| 2026-04-29 00:53 | 56.65315 | -111.12079 | 2182 ft | 151 kts | 271° |
| 2026-04-29 00:54 | 56.65324 | -111.13865 | 1979 ft | 133 kts | 271° |
| 2026-04-29 00:54 | 56.65330 | -111.15519 | 1799 ft | 133 kts | 269° |
| 2026-04-29 00:54 | 56.65329 | -111.17221 | 1622 ft | 133 kts | 268° |
| 2026-04-29 00:54 | 56.65324 | -111.18894 | 1420 ft | 135 kts | 268° |
| 2026-04-29 00:55 | 56.65322 | -111.20535 | 1264 ft | 124 kts | 267° |
| 2026-04-29 00:55 | 56.65319 | -111.21964 | 1219 ft | 90 kts | 270° |
| 2026-04-29 00:55 | 56.65314 | -111.22809 | 1218 ft | 57 kts | 269° |
| 2026-04-29 00:55 | 56.65339 | -111.23199 | 1218 ft | 11 kts | 311° |
| 2026-04-29 00:56 | 56.65413 | -111.23224 | 1218 ft | 12 kts | 359° |
| 2026-04-29 00:56 | 56.65484 | -111.23178 | 1218 ft | 11 kts | 66° |
| 2026-04-29 00:56 | 56.65493 | -111.23026 | 1218 ft | 12 kts | 86° |
| 2026-04-29 00:56 | 56.65495 | -111.22872 | 1218 ft | 12 kts | 92° |
| 2026-04-29 00:57 | 56.65494 | -111.22716 | 1218 ft | 13 kts | 90° |
| 2026-04-29 00:57 | 56.65494 | -111.22541 | 1218 ft | 15 kts | 89° |
| 2026-04-29 00:57 | 56.65543 | -111.22460 | 1218 ft | 9 kts | 9° |
| 2026-04-29 00:57 | 56.65576 | -111.22414 | 1218 ft | 0 kts | 51° |